sensor_id;sensor_type;location;lat;lon;timestamp;pressure;altitude;pressure_sealevel;temperature;humidity
7834;BME280;3962;42.696;23.354;2023-10-31T00:01:34;95382.72;;;12.03;81.82
7834;BME280;3962;42.696;23.354;2023-10-31T00:04:03;95382.50;;;11.97;81.48
7834;BME280;3962;42.696;23.354;2023-10-31T00:06:29;95383.84;;;11.93;82.59
7834;BME280;3962;42.696;23.354;2023-10-31T00:08:56;95383.13;;;11.91;82.03
7834;BME280;3962;42.696;23.354;2023-10-31T00:11:23;95385.03;;;11.81;82.44
7834;BME280;3962;42.696;23.354;2023-10-31T00:13:50;95376.13;;;11.72;82.55
7834;BME280;3962;42.696;23.354;2023-10-31T00:16:17;95381.97;;;11.76;82.98
7834;BME280;3962;42.696;23.354;2023-10-31T00:18:43;95379.47;;;11.74;82.57
7834;BME280;3962;42.696;23.354;2023-10-31T00:21:12;95372.94;;;11.69;82.81
7834;BME280;3962;42.696;23.354;2023-10-31T00:23:43;95372.22;;;11.67;83.65
7834;BME280;3962;42.696;23.354;2023-10-31T00:26:10;95371.94;;;11.70;82.92
7834;BME280;3962;42.696;23.354;2023-10-31T00:28:37;95370.72;;;11.64;84.07
7834;BME280;3962;42.696;23.354;2023-10-31T00:31:04;95374.59;;;11.70;83.16
7834;BME280;3962;42.696;23.354;2023-10-31T00:33:32;95367.59;;;11.69;83.28
7834;BME280;3962;42.696;23.354;2023-10-31T00:35:59;95370.94;;;11.71;83.91
7834;BME280;3962;42.696;23.354;2023-10-31T00:38:27;95360.56;;;11.68;83.74
7834;BME280;3962;42.696;23.354;2023-10-31T00:40:54;95365.09;;;11.67;83.77
7834;BME280;3962;42.696;23.354;2023-10-31T00:43:22;95365.41;;;11.64;83.62
7834;BME280;3962;42.696;23.354;2023-10-31T00:45:49;95356.16;;;11.59;83.75
7834;BME280;3962;42.696;23.354;2023-10-31T00:48:15;95354.38;;;11.50;83.59
7834;BME280;3962;42.696;23.354;2023-10-31T00:50:43;95350.84;;;11.32;84.48
7834;BME280;3962;42.696;23.354;2023-10-31T00:53:09;95349.19;;;11.31;84.28
7834;BME280;3962;42.696;23.354;2023-10-31T00:55:38;95357.81;;;11.42;83.84
7834;BME280;3962;42.696;23.354;2023-10-31T00:58:04;95343.78;;;11.23;84.58
7834;BME280;3962;42.696;23.354;2023-10-31T01:00:31;95346.25;;;11.24;84.19
7834;BME280;3962;42.696;23.354;2023-10-31T01:02:59;95338.81;;;11.28;84.50
7834;BME280;3962;42.696;23.354;2023-10-31T01:05:26;95335.59;;;11.24;84.52
7834;BME280;3962;42.696;23.354;2023-10-31T01:07:53;95334.13;;;11.22;84.51
7834;BME280;3962;42.696;23.354;2023-10-31T01:10:20;95338.00;;;11.27;84.78
7834;BME280;3962;42.696;23.354;2023-10-31T01:12:49;95335.97;;;11.12;84.63
7834;BME280;3962;42.696;23.354;2023-10-31T01:15:16;95338.25;;;11.07;85.22
7834;BME280;3962;42.696;23.354;2023-10-31T01:17:43;95328.28;;;11.09;85.45
7834;BME280;3962;42.696;23.354;2023-10-31T01:20:10;95333.63;;;11.09;85.34
7834;BME280;3962;42.696;23.354;2023-10-31T01:22:37;95329.28;;;11.08;85.19
7834;BME280;3962;42.696;23.354;2023-10-31T01:25:05;95327.22;;;11.02;85.66
7834;BME280;3962;42.696;23.354;2023-10-31T01:27:32;95316.69;;;11.00;85.76
7834;BME280;3962;42.696;23.354;2023-10-31T01:30:00;95320.31;;;11.09;86.04
7834;BME280;3962;42.696;23.354;2023-10-31T01:32:27;95320.06;;;11.02;85.59
7834;BME280;3962;42.696;23.354;2023-10-31T01:34:54;95326.38;;;11.01;85.57
7834;BME280;3962;42.696;23.354;2023-10-31T01:37:21;95316.47;;;10.94;85.46
7834;BME280;3962;42.696;23.354;2023-10-31T01:39:48;95313.34;;;10.98;85.58
7834;BME280;3962;42.696;23.354;2023-10-31T01:42:15;95320.22;;;11.01;85.69
7834;BME280;3962;42.696;23.354;2023-10-31T01:44:42;95309.88;;;10.98;85.26
7834;BME280;3962;42.696;23.354;2023-10-31T01:47:10;95317.91;;;10.88;85.60
7834;BME280;3962;42.696;23.354;2023-10-31T01:49:37;95315.94;;;10.90;86.03
7834;BME280;3962;42.696;23.354;2023-10-31T01:52:05;95320.66;;;10.96;85.44
7834;BME280;3962;42.696;23.354;2023-10-31T01:54:32;95314.25;;;10.89;85.29
7834;BME280;3962;42.696;23.354;2023-10-31T01:57:00;95324.69;;;10.74;85.65
7834;BME280;3962;42.696;23.354;2023-10-31T01:59:27;95316.31;;;10.69;85.58
7834;BME280;3962;42.696;23.354;2023-10-31T02:01:55;95317.03;;;10.71;86.11
7834;BME280;3962;42.696;23.354;2023-10-31T02:04:24;95311.06;;;10.59;86.67
7834;BME280;3962;42.696;23.354;2023-10-31T02:06:51;95314.88;;;10.47;86.75
7834;BME280;3962;42.696;23.354;2023-10-31T02:09:18;95307.63;;;10.40;87.41
7834;BME280;3962;42.696;23.354;2023-10-31T02:11:45;95307.03;;;10.46;88.07
7834;BME280;3962;42.696;23.354;2023-10-31T02:14:11;95302.69;;;10.45;87.85
7834;BME280;3962;42.696;23.354;2023-10-31T02:16:38;95305.97;;;10.39;87.56
7834;BME280;3962;42.696;23.354;2023-10-31T02:19:06;95307.66;;;10.30;87.47
7834;BME280;3962;42.696;23.354;2023-10-31T02:21:39;95299.00;;;10.28;87.77
7834;BME280;3962;42.696;23.354;2023-10-31T02:24:06;95295.66;;;10.17;87.27
7834;BME280;3962;42.696;23.354;2023-10-31T02:26:34;95294.84;;;10.07;87.19
7834;BME280;3962;42.696;23.354;2023-10-31T02:29:01;95297.50;;;9.97;86.74
7834;BME280;3962;42.696;23.354;2023-10-31T02:31:28;95296.41;;;9.90;86.97
7834;BME280;3962;42.696;23.354;2023-10-31T02:33:55;95295.72;;;9.79;87.07
7834;BME280;3962;42.696;23.354;2023-10-31T02:36:22;95283.28;;;9.60;87.28
7834;BME280;3962;42.696;23.354;2023-10-31T02:38:51;95290.69;;;9.57;87.33
7834;BME280;3962;42.696;23.354;2023-10-31T02:41:17;95296.13;;;9.55;88.06
7834;BME280;3962;42.696;23.354;2023-10-31T02:43:44;95289.75;;;9.48;87.65
7834;BME280;3962;42.696;23.354;2023-10-31T02:46:11;95287.09;;;9.39;87.68
7834;BME280;3962;42.696;23.354;2023-10-31T02:48:40;95289.19;;;9.35;88.63
7834;BME280;3962;42.696;23.354;2023-10-31T02:51:07;95294.22;;;9.29;89.49
7834;BME280;3962;42.696;23.354;2023-10-31T02:53:34;95290.69;;;9.19;89.72
7834;BME280;3962;42.696;23.354;2023-10-31T02:56:04;95306.50;;;9.20;90.19
7834;BME280;3962;42.696;23.354;2023-10-31T02:58:30;95297.28;;;9.15;90.70
7834;BME280;3962;42.696;23.354;2023-10-31T03:00:57;95300.75;;;9.06;91.07
7834;BME280;3962;42.696;23.354;2023-10-31T03:03:24;95302.03;;;9.11;91.05
7834;BME280;3962;42.696;23.354;2023-10-31T03:05:51;95308.88;;;9.14;91.51
7834;BME280;3962;42.696;23.354;2023-10-31T03:08:17;95300.19;;;9.12;91.83
7834;BME280;3962;42.696;23.354;2023-10-31T03:10:47;95305.94;;;9.17;91.56
7834;BME280;3962;42.696;23.354;2023-10-31T03:13:18;95300.50;;;9.18;91.93
7834;BME280;3962;42.696;23.354;2023-10-31T03:15:45;95311.09;;;9.28;92.05
7834;BME280;3962;42.696;23.354;2023-10-31T03:18:12;95296.03;;;9.28;91.23
7834;BME280;3962;42.696;23.354;2023-10-31T03:20:40;95298.38;;;9.31;91.15
7834;BME280;3962;42.696;23.354;2023-10-31T03:23:07;95290.41;;;9.31;91.27
7834;BME280;3962;42.696;23.354;2023-10-31T03:25:34;95299.38;;;9.30;91.15
7834;BME280;3962;42.696;23.354;2023-10-31T03:28:01;95289.47;;;9.23;91.62
7834;BME280;3962;42.696;23.354;2023-10-31T03:30:29;95271.84;;;9.22;91.69
7834;BME280;3962;42.696;23.354;2023-10-31T03:32:56;95275.63;;;9.29;91.21
7834;BME280;3962;42.696;23.354;2023-10-31T03:35:23;95271.97;;;9.20;91.46
7834;BME280;3962;42.696;23.354;2023-10-31T03:37:50;95272.53;;;9.24;91.68
7834;BME280;3962;42.696;23.354;2023-10-31T03:40:17;95267.38;;;9.22;91.68
7834;BME280;3962;42.696;23.354;2023-10-31T03:42:44;95264.72;;;9.22;91.61
7834;BME280;3962;42.696;23.354;2023-10-31T03:45:10;95254.25;;;9.11;91.40
7834;BME280;3962;42.696;23.354;2023-10-31T03:47:39;95267.38;;;9.03;92.35
7834;BME280;3962;42.696;23.354;2023-10-31T03:50:08;95256.88;;;8.92;92.90
7834;BME280;3962;42.696;23.354;2023-10-31T03:52:35;95271.69;;;8.85;93.14
7834;BME280;3962;42.696;23.354;2023-10-31T03:55:02;95283.81;;;8.78;93.52
7834;BME280;3962;42.696;23.354;2023-10-31T03:57:29;95287.28;;;8.69;93.35
7834;BME280;3962;42.696;23.354;2023-10-31T03:59:56;95288.09;;;8.70;94.58
7834;BME280;3962;42.696;23.354;2023-10-31T04:02:23;95280.69;;;8.64;92.90
7834;BME280;3962;42.696;23.354;2023-10-31T04:04:51;95288.47;;;8.46;92.04
7834;BME280;3962;42.696;23.354;2023-10-31T04:07:18;95287.06;;;8.42;92.79
7834;BME280;3962;42.696;23.354;2023-10-31T04:09:45;95283.00;;;8.38;92.07
7834;BME280;3962;42.696;23.354;2023-10-31T04:12:12;95276.38;;;8.23;93.03
7834;BME280;3962;42.696;23.354;2023-10-31T04:14:38;95278.19;;;8.23;93.66
7834;BME280;3962;42.696;23.354;2023-10-31T04:17:05;95281.69;;;8.33;93.20
7834;BME280;3962;42.696;23.354;2023-10-31T04:19:32;95277.28;;;8.43;92.78
7834;BME280;3962;42.696;23.354;2023-10-31T04:22:00;95272.56;;;8.46;92.59
7834;BME280;3962;42.696;23.354;2023-10-31T04:24:27;95263.06;;;8.53;92.28
7834;BME280;3962;42.696;23.354;2023-10-31T04:26:54;95259.19;;;8.57;91.46
7834;BME280;3962;42.696;23.354;2023-10-31T04:29:20;95244.81;;;8.60;91.70
7834;BME280;3962;42.696;23.354;2023-10-31T04:31:47;95247.19;;;8.63;91.92
7834;BME280;3962;42.696;23.354;2023-10-31T04:34:15;95241.88;;;8.63;91.91
7834;BME280;3962;42.696;23.354;2023-10-31T04:36:42;95243.56;;;8.64;91.79
7834;BME280;3962;42.696;23.354;2023-10-31T04:39:10;95250.13;;;8.60;91.76
7834;BME280;3962;42.696;23.354;2023-10-31T04:41:37;95252.63;;;8.52;92.75
7834;BME280;3962;42.696;23.354;2023-10-31T04:44:05;95251.50;;;8.64;93.11
7834;BME280;3962;42.696;23.354;2023-10-31T04:46:32;95246.28;;;9.40;98.25
7834;BME280;3962;42.696;23.354;2023-10-31T04:48:59;95267.09;;;9.54;93.91
7834;BME280;3962;42.696;23.354;2023-10-31T04:51:25;95272.50;;;9.81;93.35
7834;BME280;3962;42.696;23.354;2023-10-31T04:53:52;95270.41;;;10.30;91.74
7834;BME280;3962;42.696;23.354;2023-10-31T04:56:21;95274.91;;;10.83;88.49
7834;BME280;3962;42.696;23.354;2023-10-31T04:58:47;95278.03;;;10.79;86.90
7834;BME280;3962;42.696;23.354;2023-10-31T05:01:15;95284.56;;;10.31;85.60
7834;BME280;3962;42.696;23.354;2023-10-31T05:03:42;95282.53;;;10.06;86.03
7834;BME280;3962;42.696;23.354;2023-10-31T05:06:09;95286.47;;;10.11;87.55
7834;BME280;3962;42.696;23.354;2023-10-31T05:08:36;95282.41;;;9.88;86.70
7834;BME280;3962;42.696;23.354;2023-10-31T05:11:03;95277.97;;;10.88;85.78
7834;BME280;3962;42.696;23.354;2023-10-31T05:13:31;95284.66;;;10.92;84.48
7834;BME280;3962;42.696;23.354;2023-10-31T05:15:58;95274.31;;;10.89;85.37
7834;BME280;3962;42.696;23.354;2023-10-31T05:18:25;95274.38;;;10.53;83.98
7834;BME280;3962;42.696;23.354;2023-10-31T05:20:52;95272.66;;;10.25;84.88
7834;BME280;3962;42.696;23.354;2023-10-31T05:23:19;95271.19;;;10.13;84.28
7834;BME280;3962;42.696;23.354;2023-10-31T05:25:46;95274.03;;;10.66;84.62
7834;BME280;3962;42.696;23.354;2023-10-31T05:28:13;95281.03;;;10.40;83.98
7834;BME280;3962;42.696;23.354;2023-10-31T05:30:41;95282.59;;;10.33;84.32
7834;BME280;3962;42.696;23.354;2023-10-31T05:33:08;95290.06;;;10.20;85.01
7834;BME280;3962;42.696;23.354;2023-10-31T05:35:35;95293.38;;;10.31;84.72
7834;BME280;3962;42.696;23.354;2023-10-31T05:38:02;95297.31;;;10.27;84.22
7834;BME280;3962;42.696;23.354;2023-10-31T05:40:29;95294.88;;;10.43;84.16
7834;BME280;3962;42.696;23.354;2023-10-31T05:42:57;95308.97;;;10.53;84.42
7834;BME280;3962;42.696;23.354;2023-10-31T05:45:24;95290.34;;;10.80;83.85
7834;BME280;3962;42.696;23.354;2023-10-31T05:47:52;95295.44;;;10.47;82.85
7834;BME280;3962;42.696;23.354;2023-10-31T05:50:19;95291.59;;;10.22;83.44
7834;BME280;3962;42.696;23.354;2023-10-31T05:52:46;95299.91;;;10.37;82.36
7834;BME280;3962;42.696;23.354;2023-10-31T05:55:13;95294.94;;;10.15;82.33
7834;BME280;3962;42.696;23.354;2023-10-31T05:57:40;95307.69;;;10.02;82.54
7834;BME280;3962;42.696;23.354;2023-10-31T06:00:07;95319.31;;;10.10;83.52
7834;BME280;3962;42.696;23.354;2023-10-31T06:02:34;95315.78;;;10.29;81.98
7834;BME280;3962;42.696;23.354;2023-10-31T06:05:03;95323.69;;;10.11;81.21
7834;BME280;3962;42.696;23.354;2023-10-31T06:07:30;95328.75;;;9.57;83.58
7834;BME280;3962;42.696;23.354;2023-10-31T06:09:57;95316.84;;;9.42;83.99
7834;BME280;3962;42.696;23.354;2023-10-31T06:12:24;95327.75;;;9.49;83.51
7834;BME280;3962;42.696;23.354;2023-10-31T06:14:50;95334.16;;;9.18;84.53
7834;BME280;3962;42.696;23.354;2023-10-31T06:17:17;95327.59;;;9.22;85.96
7834;BME280;3962;42.696;23.354;2023-10-31T06:19:44;95321.97;;;9.15;86.43
7834;BME280;3962;42.696;23.354;2023-10-31T06:22:14;95329.00;;;9.26;87.08
7834;BME280;3962;42.696;23.354;2023-10-31T06:24:41;95319.22;;;9.36;86.68
7834;BME280;3962;42.696;23.354;2023-10-31T06:27:07;95318.38;;;9.73;87.45
7834;BME280;3962;42.696;23.354;2023-10-31T06:29:34;95316.25;;;9.86;85.97
7834;BME280;3962;42.696;23.354;2023-10-31T06:32:01;95315.69;;;9.92;86.08
7834;BME280;3962;42.696;23.354;2023-10-31T06:34:28;95327.84;;;9.95;85.45
7834;BME280;3962;42.696;23.354;2023-10-31T06:36:55;95327.56;;;9.98;85.93
7834;BME280;3962;42.696;23.354;2023-10-31T06:39:22;95324.06;;;10.07;85.69
7834;BME280;3962;42.696;23.354;2023-10-31T06:41:49;95328.50;;;10.25;85.34
7834;BME280;3962;42.696;23.354;2023-10-31T06:44:16;95316.63;;;10.29;85.60
7834;BME280;3962;42.696;23.354;2023-10-31T06:46:43;95318.31;;;10.57;84.62
7834;BME280;3962;42.696;23.354;2023-10-31T06:49:10;95311.25;;;10.75;84.72
7834;BME280;3962;42.696;23.354;2023-10-31T06:51:37;95303.59;;;10.89;84.21
7834;BME280;3962;42.696;23.354;2023-10-31T06:54:04;95313.69;;;11.13;83.37
7834;BME280;3962;42.696;23.354;2023-10-31T06:56:32;95305.63;;;11.22;82.85
7834;BME280;3962;42.696;23.354;2023-10-31T06:58:59;95297.66;;;11.40;81.83
7834;BME280;3962;42.696;23.354;2023-10-31T07:01:26;95306.94;;;11.53;81.16
7834;BME280;3962;42.696;23.354;2023-10-31T07:03:53;95284.28;;;11.49;80.44
7834;BME280;3962;42.696;23.354;2023-10-31T07:06:20;95307.47;;;11.57;80.49
7834;BME280;3962;42.696;23.354;2023-10-31T07:08:47;95315.44;;;11.66;80.02
7834;BME280;3962;42.696;23.354;2023-10-31T07:11:14;95305.19;;;11.79;79.98
7834;BME280;3962;42.696;23.354;2023-10-31T07:13:43;95320.91;;;12.00;79.52
7834;BME280;3962;42.696;23.354;2023-10-31T07:16:10;95303.63;;;12.12;78.51
7834;BME280;3962;42.696;23.354;2023-10-31T07:18:37;95294.22;;;12.25;78.40
7834;BME280;3962;42.696;23.354;2023-10-31T07:21:05;95299.38;;;12.44;77.75
7834;BME280;3962;42.696;23.354;2023-10-31T07:23:32;95305.97;;;12.66;77.03
7834;BME280;3962;42.696;23.354;2023-10-31T07:25:59;95298.19;;;12.80;75.80
7834;BME280;3962;42.696;23.354;2023-10-31T07:28:26;95288.41;;;12.89;75.93
7834;BME280;3962;42.696;23.354;2023-10-31T07:30:54;95292.69;;;13.15;74.65
7834;BME280;3962;42.696;23.354;2023-10-31T07:33:21;95293.91;;;13.29;74.32
7834;BME280;3962;42.696;23.354;2023-10-31T07:35:48;95292.91;;;13.38;74.10
7834;BME280;3962;42.696;23.354;2023-10-31T07:38:15;95284.88;;;13.30;74.09
7834;BME280;3962;42.696;23.354;2023-10-31T07:40:42;95293.44;;;13.41;73.63
7834;BME280;3962;42.696;23.354;2023-10-31T07:43:09;95286.94;;;13.52;74.02
7834;BME280;3962;42.696;23.354;2023-10-31T07:45:36;95271.06;;;13.66;73.05
7834;BME280;3962;42.696;23.354;2023-10-31T07:48:05;95268.91;;;13.86;72.50
7834;BME280;3962;42.696;23.354;2023-10-31T07:50:31;95277.59;;;13.96;72.50
7834;BME280;3962;42.696;23.354;2023-10-31T07:52:58;95263.38;;;14.03;72.44
7834;BME280;3962;42.696;23.354;2023-10-31T07:55:26;95260.72;;;13.95;73.01
7834;BME280;3962;42.696;23.354;2023-10-31T07:57:52;95266.06;;;14.11;71.93
7834;BME280;3962;42.696;23.354;2023-10-31T08:00:19;95265.56;;;14.24;71.46
7834;BME280;3962;42.696;23.354;2023-10-31T08:02:47;95246.81;;;14.40;71.48
7834;BME280;3962;42.696;23.354;2023-10-31T08:05:15;95252.25;;;15.69;69.41
7834;BME280;3962;42.696;23.354;2023-10-31T08:07:42;95251.78;;;17.27;64.72
7834;BME280;3962;42.696;23.354;2023-10-31T08:10:10;95245.13;;;18.70;58.79
7834;BME280;3962;42.696;23.354;2023-10-31T08:12:37;95238.50;;;19.40;55.90
7834;BME280;3962;42.696;23.354;2023-10-31T08:15:05;95275.72;;;20.95;53.02
7834;BME280;3962;42.696;23.354;2023-10-31T08:17:35;95264.41;;;21.31;51.18
7834;BME280;3962;42.696;23.354;2023-10-31T08:20:05;95255.00;;;21.40;50.38
7834;BME280;3962;42.696;23.354;2023-10-31T08:22:34;95258.66;;;20.30;52.02
7834;BME280;3962;42.696;23.354;2023-10-31T08:25:01;95248.47;;;20.90;51.63
7834;BME280;3962;42.696;23.354;2023-10-31T08:27:28;95246.03;;;21.46;50.23
7834;BME280;3962;42.696;23.354;2023-10-31T08:29:55;95234.59;;;21.37;49.81
7834;BME280;3962;42.696;23.354;2023-10-31T08:32:23;95229.00;;;21.83;49.05
7834;BME280;3962;42.696;23.354;2023-10-31T08:34:50;95232.50;;;21.90;48.86
7834;BME280;3962;42.696;23.354;2023-10-31T08:37:17;95216.22;;;21.52;49.55
7834;BME280;3962;42.696;23.354;2023-10-31T08:39:45;95214.38;;;21.46;49.82
7834;BME280;3962;42.696;23.354;2023-10-31T08:42:12;95222.50;;;21.46;49.73
7834;BME280;3962;42.696;23.354;2023-10-31T08:44:40;95224.81;;;21.36;49.73
7834;BME280;3962;42.696;23.354;2023-10-31T08:47:07;95212.09;;;21.43;49.77
7834;BME280;3962;42.696;23.354;2023-10-31T08:49:34;95205.13;;;21.16;50.40
7834;BME280;3962;42.696;23.354;2023-10-31T08:52:01;95206.41;;;21.58;50.07
7834;BME280;3962;42.696;23.354;2023-10-31T08:54:29;95191.41;;;21.55;49.19
7834;BME280;3962;42.696;23.354;2023-10-31T08:56:57;95187.81;;;21.24;49.97
7834;BME280;3962;42.696;23.354;2023-10-31T08:59:24;95183.31;;;20.98;50.90
7834;BME280;3962;42.696;23.354;2023-10-31T09:01:51;95174.84;;;20.88;50.83
7834;BME280;3962;42.696;23.354;2023-10-31T09:04:18;95183.16;;;20.67;51.23
7834;BME280;3962;42.696;23.354;2023-10-31T09:06:45;95182.75;;;20.77;51.43
7834;BME280;3962;42.696;23.354;2023-10-31T09:09:12;95177.97;;;20.72;52.00
7834;BME280;3962;42.696;23.354;2023-10-31T09:11:40;95161.06;;;20.96;51.37
7834;BME280;3962;42.696;23.354;2023-10-31T09:14:08;95162.78;;;20.71;51.40
7834;BME280;3962;42.696;23.354;2023-10-31T09:16:37;95152.25;;;20.44;51.62
7834;BME280;3962;42.696;23.354;2023-10-31T09:19:04;95150.16;;;20.39;52.14
7834;BME280;3962;42.696;23.354;2023-10-31T09:21:31;95135.63;;;20.34;52.33
7834;BME280;3962;42.696;23.354;2023-10-31T09:23:58;95140.19;;;20.33;52.37
7834;BME280;3962;42.696;23.354;2023-10-31T09:26:25;95145.59;;;20.20;52.66
7834;BME280;3962;42.696;23.354;2023-10-31T09:28:52;95123.56;;;20.17;52.92
7834;BME280;3962;42.696;23.354;2023-10-31T09:31:20;95128.53;;;19.94;53.15
7834;BME280;3962;42.696;23.354;2023-10-31T09:33:47;95118.16;;;19.91;53.75
7834;BME280;3962;42.696;23.354;2023-10-31T09:36:14;95111.72;;;19.79;53.75
7834;BME280;3962;42.696;23.354;2023-10-31T09:38:40;95120.44;;;19.68;53.89
7834;BME280;3962;42.696;23.354;2023-10-31T09:41:11;95116.69;;;19.69;54.18
7834;BME280;3962;42.696;23.354;2023-10-31T09:43:38;95095.94;;;19.76;54.03
7834;BME280;3962;42.696;23.354;2023-10-31T09:46:05;95096.56;;;19.71;54.25
7834;BME280;3962;42.696;23.354;2023-10-31T09:48:34;95090.13;;;19.59;54.21
7834;BME280;3962;42.696;23.354;2023-10-31T09:51:02;95080.97;;;19.54;54.59
7834;BME280;3962;42.696;23.354;2023-10-31T09:53:30;95081.19;;;19.65;54.45
7834;BME280;3962;42.696;23.354;2023-10-31T09:55:57;95075.59;;;19.80;54.64
7834;BME280;3962;42.696;23.354;2023-10-31T09:58:24;95069.53;;;19.97;53.39
7834;BME280;3962;42.696;23.354;2023-10-31T10:00:51;95073.06;;;19.98;53.16
7834;BME280;3962;42.696;23.354;2023-10-31T10:03:18;95057.06;;;19.96;53.74
7834;BME280;3962;42.696;23.354;2023-10-31T10:05:47;95051.44;;;20.24;52.80
7834;BME280;3962;42.696;23.354;2023-10-31T10:08:15;95041.66;;;20.29;52.21
7834;BME280;3962;42.696;23.354;2023-10-31T10:10:42;95043.56;;;20.22;52.17
7834;BME280;3962;42.696;23.354;2023-10-31T10:13:09;95027.13;;;20.24;51.95
7834;BME280;3962;42.696;23.354;2023-10-31T10:15:44;95025.53;;;19.90;52.13
7834;BME280;3962;42.696;23.354;2023-10-31T10:18:24;95018.88;;;19.73;52.19
7834;BME280;3962;42.696;23.354;2023-10-31T10:20:56;95012.88;;;19.71;52.30
7834;BME280;3962;42.696;23.354;2023-10-31T10:23:23;95015.34;;;19.92;52.01
7834;BME280;3962;42.696;23.354;2023-10-31T10:25:50;95012.63;;;20.05;51.82
7834;BME280;3962;42.696;23.354;2023-10-31T10:28:17;95006.00;;;20.14;51.42
7834;BME280;3962;42.696;23.354;2023-10-31T10:30:45;95001.84;;;20.12;50.59
7834;BME280;3962;42.696;23.354;2023-10-31T10:33:13;94996.59;;;20.17;50.58
7834;BME280;3962;42.696;23.354;2023-10-31T10:35:40;94993.66;;;20.25;50.78
7834;BME280;3962;42.696;23.354;2023-10-31T10:38:10;95004.19;;;20.46;50.16
7834;BME280;3962;42.696;23.354;2023-10-31T10:40:39;95004.56;;;20.56;48.89
7834;BME280;3962;42.696;23.354;2023-10-31T10:43:12;94987.50;;;20.62;48.51
7834;BME280;3962;42.696;23.354;2023-10-31T10:45:42;94976.47;;;20.63;48.60
7834;BME280;3962;42.696;23.354;2023-10-31T10:48:11;94974.59;;;20.64;49.07
7834;BME280;3962;42.696;23.354;2023-10-31T10:50:41;94973.28;;;20.73;48.41
7834;BME280;3962;42.696;23.354;2023-10-31T10:53:16;94971.34;;;20.93;48.14
7834;BME280;3962;42.696;23.354;2023-10-31T10:55:46;94953.25;;;20.93;46.78
7834;BME280;3962;42.696;23.354;2023-10-31T10:58:18;94949.06;;;20.97;46.59
7834;BME280;3962;42.696;23.354;2023-10-31T11:00:50;94945.28;;;20.98;45.96
7834;BME280;3962;42.696;23.354;2023-10-31T11:03:18;94942.38;;;21.00;46.12
7834;BME280;3962;42.696;23.354;2023-10-31T11:05:46;94936.84;;;20.88;46.43
7834;BME280;3962;42.696;23.354;2023-10-31T11:08:15;94931.66;;;20.80;46.24
7834;BME280;3962;42.696;23.354;2023-10-31T11:10:43;94933.53;;;20.86;45.55
7834;BME280;3962;42.696;23.354;2023-10-31T11:13:11;94938.84;;;20.99;45.98
7834;BME280;3962;42.696;23.354;2023-10-31T11:15:39;94919.91;;;20.99;45.43
7834;BME280;3962;42.696;23.354;2023-10-31T11:18:08;94916.66;;;21.15;45.46
7834;BME280;3962;42.696;23.354;2023-10-31T11:20:36;94908.16;;;21.12;45.19
7834;BME280;3962;42.696;23.354;2023-10-31T11:23:03;94902.59;;;21.07;45.11
7834;BME280;3962;42.696;23.354;2023-10-31T11:25:33;94904.44;;;21.06;45.20
7834;BME280;3962;42.696;23.354;2023-10-31T11:28:14;94902.13;;;21.10;44.53
7834;BME280;3962;42.696;23.354;2023-10-31T11:30:41;94895.91;;;21.09;44.71
7834;BME280;3962;42.696;23.354;2023-10-31T11:33:11;94890.44;;;21.16;44.66
7834;BME280;3962;42.696;23.354;2023-10-31T11:35:39;94873.53;;;21.20;44.21
7834;BME280;3962;42.696;23.354;2023-10-31T11:38:08;94873.56;;;21.38;44.04
7834;BME280;3962;42.696;23.354;2023-10-31T11:40:57;94873.19;;;21.35;44.68
7834;BME280;3962;42.696;23.354;2023-10-31T11:43:25;94868.50;;;21.24;45.17
7834;BME280;3962;42.696;23.354;2023-10-31T11:45:52;94862.91;;;21.25;45.55
7834;BME280;3962;42.696;23.354;2023-10-31T11:48:44;94862.47;;;21.46;44.69
7834;BME280;3962;42.696;23.354;2023-10-31T11:51:12;94862.25;;;21.48;44.86
7834;BME280;3962;42.696;23.354;2023-10-31T11:53:39;94859.91;;;21.51;45.23
7834;BME280;3962;42.696;23.354;2023-10-31T11:56:09;94858.66;;;21.54;45.23
7834;BME280;3962;42.696;23.354;2023-10-31T11:58:36;94853.38;;;21.59;45.55
7834;BME280;3962;42.696;23.354;2023-10-31T12:01:05;94849.41;;;21.61;45.71
7834;BME280;3962;42.696;23.354;2023-10-31T12:03:37;94843.59;;;21.58;46.42
7834;BME280;3962;42.696;23.354;2023-10-31T12:06:05;94853.84;;;21.56;46.61
7834;BME280;3962;42.696;23.354;2023-10-31T12:08:33;94842.31;;;21.42;46.95
7834;BME280;3962;42.696;23.354;2023-10-31T12:11:05;94835.78;;;21.50;47.29
7834;BME280;3962;42.696;23.354;2023-10-31T12:13:34;94826.97;;;21.54;46.38
7834;BME280;3962;42.696;23.354;2023-10-31T12:16:02;94820.88;;;21.59;46.64
7834;BME280;3962;42.696;23.354;2023-10-31T12:18:29;94815.19;;;21.67;46.29
7834;BME280;3962;42.696;23.354;2023-10-31T12:20:56;94819.41;;;21.81;46.63
7834;BME280;3962;42.696;23.354;2023-10-31T12:23:23;94826.81;;;21.92;46.17
7834;BME280;3962;42.696;23.354;2023-10-31T12:25:50;94836.19;;;22.07;46.37
7834;BME280;3962;42.696;23.354;2023-10-31T12:28:17;94834.75;;;22.05;47.35
7834;BME280;3962;42.696;23.354;2023-10-31T12:30:46;94821.69;;;21.84;48.31
7834;BME280;3962;42.696;23.354;2023-10-31T12:33:13;94818.53;;;21.69;47.00
7834;BME280;3962;42.696;23.354;2023-10-31T12:35:40;94818.97;;;21.84;47.43
7834;BME280;3962;42.696;23.354;2023-10-31T12:38:10;94815.72;;;22.11;46.64
7834;BME280;3962;42.696;23.354;2023-10-31T12:40:37;94800.94;;;22.07;45.63
7834;BME280;3962;42.696;23.354;2023-10-31T12:43:05;94791.00;;;22.19;45.34
7834;BME280;3962;42.696;23.354;2023-10-31T12:45:32;94790.06;;;22.43;45.13
7834;BME280;3962;42.696;23.354;2023-10-31T12:48:04;94779.88;;;22.39;45.24
7834;BME280;3962;42.696;23.354;2023-10-31T12:50:31;94782.81;;;22.37;45.35
7834;BME280;3962;42.696;23.354;2023-10-31T12:53:00;94778.53;;;22.48;44.91
7834;BME280;3962;42.696;23.354;2023-10-31T12:55:29;94772.47;;;22.46;45.11
7834;BME280;3962;42.696;23.354;2023-10-31T12:57:57;94767.66;;;22.18;45.63
7834;BME280;3962;42.696;23.354;2023-10-31T13:00:31;94771.09;;;21.96;46.40
7834;BME280;3962;42.696;23.354;2023-10-31T13:03:04;94782.09;;;21.83;46.59
7834;BME280;3962;42.696;23.354;2023-10-31T13:05:31;94784.72;;;21.71;47.88
7834;BME280;3962;42.696;23.354;2023-10-31T13:07:58;94786.84;;;21.51;48.05
7834;BME280;3962;42.696;23.354;2023-10-31T13:10:27;94789.75;;;21.50;48.28
7834;BME280;3962;42.696;23.354;2023-10-31T13:12:54;94787.28;;;21.48;48.51
7834;BME280;3962;42.696;23.354;2023-10-31T13:15:22;94788.78;;;21.44;48.29